Wetterdaten: Woche 10.12.18 - 16.12.18 (KW50)
Datum Zeit Temp. Aussen Temp. o. S. +5cm Feuchte Auss Luftdruck Regen Sonnenschein Regendauer Solar Windben Empfang
10.12.2018 00:00 5,2 C 4,4 C 4,1 C 95 % 1013,7 hPa 0,0 l/m 0,00 h 0,33 h 0 W/m 15,5 km/h (3 Bft) 96,37 %
10.12.2018 01:00 5,0 C 4,1 C 3,5 C 95 % 1014,5 hPa 0,0 l/m 0,00 h 0,90 h 0 W/m 15,2 km/h (3 Bft) 96,66 %
10.12.2018 02:00 4,4 C 3,7 C 3,3 C 94 % 1015,2 hPa 0,2 l/m 0,00 h 0,70 h 0 W/m 16,7 km/h (3 Bft) 99,00 %
10.12.2018 03:00 4,4 C 3,8 C 3,3 C 94 % 1015,9 hPa 0,0 l/m 0,00 h 0,53 h 0 W/m 15,5 km/h (3 Bft) 97,29 %
10.12.2018 04:00 4,2 C 3,6 C 3,2 C 94 % 1016,3 hPa 0,0 l/m 0,00 h 0,13 h 0 W/m 12,4 km/h (3 Bft) 97,22 %
10.12.2018 05:00 4,2 C 3,2 C 2,7 C 95 % 1016,8 hPa 0,4 l/m 0,00 h 0,20 h 0 W/m 10,4 km/h (2 Bft) 96,93 %
10.12.2018 06:00 4,2 C 3,3 C 2,8 C 95 % 1017,3 hPa 0,2 l/m 0,00 h 0,03 h 0 W/m 14,1 km/h (3 Bft) 97,94 %
10.12.2018 07:00 3,9 C 3,0 C 2,5 C 95 % 1017,9 hPa 0,0 l/m 0,00 h 0,00 h 0 W/m 11,9 km/h (2 Bft) 98,01 %
10.12.2018 08:00 4,0 C 3,3 C 2,8 C 95 % 1018,3 hPa 0,0 l/m 0,00 h 0,00 h 8 W/m 12,0 km/h (2 Bft) 97,53 %
10.12.2018 09:00 4,2 C 3,6 C 3,0 C 95 % 1019,0 hPa 0,2 l/m 0,20 h 0,27 h 40 W/m 14,9 km/h (3 Bft) 96,00 %
10.12.2018 10:00 4,6 C 4,7 C 3,6 C 95 % 1019,5 hPa 0,0 l/m 0,23 h 0,03 h 104 W/m 11,2 km/h (2 Bft) 97,43 %
10.12.2018 11:00 5,3 C 5,3 C 4,2 C 95 % 1019,6 hPa 0,2 l/m 0,20 h 0,87 h 111 W/m 11,2 km/h (2 Bft) 97,79 %
10.12.2018 12:00 5,5 C 4,6 C 4,1 C 93 % 1019,4 hPa 0,0 l/m 0,00 h 1,00 h 48 W/m 14,3 km/h (3 Bft) 96,67 %
10.12.2018 13:00 5,5 C 5,3 C 4,3 C 94 % 1019,3 hPa 0,0 l/m 0,30 h 0,70 h 99 W/m 16,0 km/h (3 Bft) 98,18 %
10.12.2018 14:00 6,3 C 7,5 C 4,9 C 93 % 1019,2 hPa 0,2 l/m 0,47 h 0,00 h 125 W/m 17,0 km/h (3 Bft) 97,46 %
10.12.2018 15:00 5,8 C 5,2 C 4,5 C 89 % 1019,4 hPa 0,0 l/m 0,00 h 0,00 h 26 W/m 15,8 km/h (3 Bft) 97,16 %
10.12.2018 16:00 5,1 C 4,3 C 3,8 C 90 % 1019,8 hPa 0,0 l/m 0,00 h 0,00 h 8 W/m 15,0 km/h (3 Bft) 98,58 %
10.12.2018 17:00 4,5 C 3,9 C 3,3 C 91 % 1020,4 hPa 0,0 l/m 0,00 h 0,00 h 0 W/m 15,2 km/h (3 Bft) 96,58 %
10.12.2018 18:00 4,0 C 3,2 C 2,7 C 91 % 1020,7 hPa 0,0 l/m 0,00 h 0,00 h 0 W/m 13,6 km/h (3 Bft) 96,97 %
10.12.2018 19:00 3,5 C 2,8 C 2,2 C 92 % 1020,9 hPa 0,0 l/m 0,00 h 0,00 h 0 W/m 12,1 km/h (2 Bft) 97,51 %
10.12.2018 20:00 3,2 C 2,7 C 2,2 C 92 % 1020,9 hPa 0,0 l/m 0,00 h 0,00 h 0 W/m 14,3 km/h (3 Bft) 95,94 %
10.12.2018 21:00 3,2 C 2,7 C 2,1 C 93 % 1021,2 hPa 0,0 l/m 0,00 h 0,00 h 0 W/m 13,0 km/h (3 Bft) 99,69 %
10.12.2018 22:00 3,0 C 2,3 C 1,7 C 93 % 1021,2 hPa 0,0 l/m 0,00 h 0,00 h 0 W/m 10,7 km/h (2 Bft) 96,11 %
10.12.2018 23:00 3,0 C 2,6 C 1,9 C 93 % 1021,3 hPa 0,0 l/m 0,00 h 0,00 h 0 W/m 10,9 km/h (2 Bft) 96,28 %
11.12.2018 00:00 3,2 C 2,8 C 2,2 C 93 % 1021,6 hPa 0,0 l/m 0,00 h 0,00 h 0 W/m 10,1 km/h (2 Bft) 98,18 %
11.12.2018 01:00 3,2 C 2,8 C 2,2 C 93 % 1021,6 hPa 0,0 l/m 0,00 h 0,00 h 0 W/m 12,7 km/h (3 Bft) 97,94 %
11.12.2018 02:00 3,4 C 2,8 C 2,2 C 93 % 1021,5 hPa 0,0 l/m 0,00 h 0,00 h 0 W/m 11,4 km/h (2 Bft) 96,43 %
11.12.2018 03:00 3,1 C 2,3 C 1,8 C 93 % 1021,6 hPa 0,0 l/m 0,00 h 0,00 h 0 W/m 9,8 km/h (2 Bft) 97,00 %
11.12.2018 04:00 2,9 C 2,1 C 1,5 C 94 % 1021,5 hPa 0,0 l/m 0,00 h 0,40 h 0 W/m 9,8 km/h (2 Bft) 98,21 %
11.12.2018 05:00 2,5 C 1,8 C 1,3 C 94 % 1021,4 hPa 0,0 l/m 0,00 h 0,03 h 0 W/m 7,5 km/h (2 Bft) 97,27 %
11.12.2018 06:00 2,9 C 2,6 C 2,0 C 95 % 1021,4 hPa 0,0 l/m 0,00 h 0,00 h 0 W/m 10,3 km/h (2 Bft) 97,49 %
11.12.2018 07:00 3,1 C 2,6 C 2,1 C 95 % 1021,4 hPa 0,0 l/m 0,00 h 0,17 h 0 W/m 10,4 km/h (2 Bft) 96,37 %
11.12.2018 08:00 2,8 C 1,9 C 1,4 C 95 % 1021,5 hPa 0,0 l/m 0,00 h 0,00 h 8 W/m 7,3 km/h (2 Bft) 97,79 %
11.12.2018 09:00 2,4 C 2,6 C 1,7 C 95 % 1021,6 hPa 0,0 l/m 0,07 h 0,00 h 40 W/m 7,9 km/h (2 Bft) 98,93 %
11.12.2018 10:00 3,3 C 5,7 C 2,4 C 95 % 1021,8 hPa 0,0 l/m 0,40 h 0,00 h 95 W/m 9,3 km/h (2 Bft) 94,53 %
11.12.2018 11:00 5,0 C 9,3 C 4,1 C 92 % 1022,0 hPa 0,0 l/m 0,77 h 0,00 h 194 W/m 12,7 km/h (3 Bft) 99,57 %
11.12.2018 12:00 6,9 C 12,4 C 5,8 C 85 % 1021,8 hPa 0,0 l/m 0,93 h 0,00 h 253 W/m 11,9 km/h (2 Bft) 96,65 %
11.12.2018 13:00 7,4 C 10,4 C 6,2 C 83 % 1021,6 hPa 0,0 l/m 0,83 h 0,00 h 205 W/m 14,2 km/h (3 Bft) 99,79 %
11.12.2018 14:00 6,9 C 7,1 C 5,6 C 84 % 1021,5 hPa 0,0 l/m 0,10 h 0,00 h 84 W/m 14,5 km/h (3 Bft) 96,59 %
11.12.2018 15:00 6,4 C 5,8 C 5,0 C 86 % 1021,4 hPa 0,0 l/m 0,00 h 0,00 h 35 W/m 11,5 km/h (2 Bft) 96,94 %
11.12.2018 16:00 5,6 C 4,5 C 3,8 C 87 % 1021,5 hPa 0,0 l/m 0,00 h 0,03 h 8 W/m 4,4 km/h (1 Bft) 99,22 %
11.12.2018 17:00 4,7 C 3,0 C 2,8 C 89 % 1021,7 hPa 0,2 l/m 0,00 h 0,10 h 0 W/m 2,4 km/h (1 Bft) 96,30 %
11.12.2018 18:00 4,1 C 3,2 C 2,7 C 90 % 1021,9 hPa 0,0 l/m 0,00 h 0,00 h 0 W/m 0,8 km/h (0 Bft) 96,94 %
11.12.2018 19:00 3,9 C 3,2 C 2,6 C 92 % 1022,1 hPa 0,0 l/m 0,00 h 0,00 h 0 W/m 1,2 km/h (1 Bft) 97,58 %
11.12.2018 20:00 3,9 C 3,3 C 2,8 C 93 % 1022,3 hPa 0,0 l/m 0,00 h 0,00 h 0 W/m 1,1 km/h (0 Bft) 97,01 %
11.12.2018 21:00 3,7 C 3,1 C 2,7 C 94 % 1022,3 hPa 0,0 l/m 0,00 h 0,00 h 0 W/m 1,9 km/h (1 Bft) 99,36 %
11.12.2018 22:00 3,2 C 1,3 C 1,0 C 94 % 1022,4 hPa 0,0 l/m 0,00 h 0,00 h 0 W/m 0,1 km/h (0 Bft) 96,51 %
11.12.2018 23:00 2,0 C 0,5 C -0,1 C 93 % 1022,5 hPa 0,0 l/m 0,00 h 0,00 h 0 W/m 0,0 km/h (0 Bft) 96,30 %
12.12.2018 00:00 1,1 C -0,2 C -0,8 C 93 % 1022,5 hPa 0,0 l/m 0,00 h 0,00 h 0 W/m 0,0 km/h (0 Bft) 98,16 %
12.12.2018 01:00 0,6 C -0,5 C -1,1 C 94 % 1022,4 hPa 0,0 l/m 0,00 h 0,00 h 0 W/m 0,0 km/h (0 Bft) 98,81 %
12.12.2018 02:00 0,2 C -1,4 C -1,5 C 94 % 1022,6 hPa 0,0 l/m 0,00 h 0,00 h 0 W/m 0,0 km/h (0 Bft) 95,09 %
12.12.2018 03:00 -0,3 C -0,8 C -1,3 C 94 % 1022,8 hPa 0,0 l/m 0,00 h 0,00 h 0 W/m 0,0 km/h (0 Bft) 98,78 %
12.12.2018 04:00 0,2 C 0,0 C -0,3 C 95 % 1022,9 hPa 0,0 l/m 0,00 h 0,00 h 0 W/m 0,0 km/h (0 Bft) 98,00 %
12.12.2018 05:00 0,7 C 0,7 C 0,2 C 96 % 1022,9 hPa 0,0 l/m 0,00 h 0,07 h 0 W/m 0,4 km/h (0 Bft) 97,44 %
12.12.2018 06:00 1,1 C -0,1 C -0,4 C 96 % 1023,0 hPa 0,0 l/m 0,00 h 0,00 h 0 W/m 0,3 km/h (0 Bft) 96,39 %
12.12.2018 07:00 0,4 C -1,1 C -1,3 C 96 % 1023,2 hPa 0,0 l/m 0,00 h 0,00 h 0 W/m 0,0 km/h (0 Bft) 97,87 %
12.12.2018 08:00 0,3 C 0,2 C -0,3 C 96 % 1023,5 hPa 0,0 l/m 0,00 h 0,00 h 9 W/m 0,0 km/h (0 Bft) 97,76 %
12.12.2018 09:00 1,0 C 0,8 C 0,0 C 97 % 1023,9 hPa 0,0 l/m 0,00 h 0,00 h 30 W/m 0,0 km/h (0 Bft) 97,40 %
12.12.2018 10:00 1,4 C 1,8 C 1,1 C 97 % 1024,1 hPa 0,0 l/m 0,00 h 0,00 h 55 W/m 0,5 km/h (0 Bft) 95,79 %
12.12.2018 11:00 2,5 C 3,0 C 2,5 C 98 % 1024,1 hPa 0,2 l/m 0,00 h 0,00 h 61 W/m 1,7 km/h (1 Bft) 98,44 %
12.12.2018 12:00 3,5 C 3,6 C 3,4 C 98 % 1023,7 hPa 0,0 l/m 0,00 h 0,00 h 77 W/m 0,0 km/h (0 Bft) 95,92 %
12.12.2018 13:00 3,7 C 4,9 C 3,9 C 98 % 1023,3 hPa 0,0 l/m 0,13 h 0,00 h 103 W/m 4,1 km/h (1 Bft) 97,94 %
12.12.2018 14:00 4,0 C 4,5 C 3,9 C 96 % 1022,7 hPa 0,0 l/m 0,00 h 0,00 h 59 W/m 7,8 km/h (2 Bft) 97,72 %
12.12.2018 15:00 4,2 C 3,7 C 3,2 C 92 % 1022,5 hPa 0,0 l/m 0,00 h 0,00 h 22 W/m 6,7 km/h (2 Bft) 96,72 %
12.12.2018 16:00 3,8 C 3,1 C 2,5 C 90 % 1022,4 hPa 0,0 l/m 0,00 h 0,00 h 9 W/m 5,8 km/h (2 Bft) 97,81 %
12.12.2018 17:00 3,3 C 2,5 C 2,0 C 91 % 1022,6 hPa 0,0 l/m 0,00 h 0,00 h 0 W/m 7,1 km/h (2 Bft) 97,37 %
12.12.2018 18:00 2,5 C 1,1 C 0,7 C 91 % 1022,6 hPa 0,0 l/m 0,00 h 0,00 h 0 W/m 4,2 km/h (1 Bft) 97,27 %
12.12.2018 19:00 1,2 C -0,5 C -0,6 C 91 % 1022,6 hPa 0,0 l/m 0,00 h 0,00 h 0 W/m 1,0 km/h (0 Bft) 97,01 %
12.12.2018 20:00 0,4 C -0,8 C -1,2 C 92 % 1022,5 hPa 0,0 l/m 0,00 h 0,00 h 0 W/m 2,0 km/h (1 Bft) 97,65 %
12.12.2018 21:00 -0,2 C -1,0 C -1,8 C 93 % 1022,4 hPa 0,0 l/m 0,00 h 0,03 h 0 W/m 0,7 km/h (0 Bft) 98,01 %
12.12.2018 22:00 0,2 C 0,2 C -0,5 C 94 % 1022,3 hPa 0,0 l/m 0,00 h 0,00 h 0 W/m 2,9 km/h (1 Bft) 97,36 %
12.12.2018 23:00 1,1 C 1,1 C 0,4 C 95 % 1021,9 hPa 0,0 l/m 0,00 h 0,00 h 0 W/m 3,7 km/h (1 Bft) 96,58 %
13.12.2018 00:00 1,7 C 1,4 C 0,6 C 96 % 1021,5 hPa 0,0 l/m 0,00 h 0,00 h 0 W/m 5,4 km/h (1 Bft) 96,47 %
13.12.2018 01:00 1,6 C 0,8 C 0,1 C 96 % 1021,0 hPa 0,0 l/m 0,00 h 0,00 h 0 W/m 7,5 km/h (2 Bft) 95,94 %
13.12.2018 02:00 1,2 C 0,5 C -0,3 C 95 % 1020,7 hPa 0,0 l/m 0,00 h 0,00 h 0 W/m 3,6 km/h (1 Bft) 97,29 %
13.12.2018 03:00 1,4 C 1,0 C 0,3 C 96 % 1020,4 hPa 0,0 l/m 0,00 h 0,00 h 0 W/m 2,2 km/h (1 Bft) 98,72 %
13.12.2018 04:00 1,2 C 0,5 C -0,3 C 96 % 1019,8 hPa 0,0 l/m 0,00 h 0,00 h 0 W/m 7,2 km/h (2 Bft) 96,29 %
13.12.2018 05:00 0,5 C -0,5 C -1,0 C 96 % 1019,5 hPa 0,0 l/m 0,00 h 0,00 h 0 W/m 3,5 km/h (1 Bft) 96,98 %
13.12.2018 06:00 0,0 C -1,0 C -1,7 C 96 % 1019,3 hPa 0,0 l/m 0,00 h 0,00 h 0 W/m 2,0 km/h (1 Bft) 97,31 %
13.12.2018 07:00 -0,2 C -1,1 C -1,7 C 96 % 1019,2 hPa 0,0 l/m 0,00 h 0,00 h 0 W/m 4,7 km/h (1 Bft) 97,31 %
13.12.2018 08:00 -0,3 C -1,1 C -1,7 C 96 % 1019,4 hPa 0,0 l/m 0,00 h 0,00 h 8 W/m 5,1 km/h (1 Bft) 96,94 %
13.12.2018 09:00 -0,4 C -0,6 C -1,5 C 96 % 1019,7 hPa 0,0 l/m 0,13 h 0,00 h 39 W/m 8,7 km/h (2 Bft) 97,77 %
13.12.2018 10:00 0,4 C 4,8 C -0,8 C 97 % 1019,7 hPa 0,0 l/m 0,97 h 0,00 h 152 W/m 7,6 km/h (2 Bft) 96,30 %
13.12.2018 11:00 2,1 C 8,2 C 0,3 C 93 % 1019,2 hPa 0,0 l/m 1,00 h 0,00 h 235 W/m 10,0 km/h (2 Bft) 96,72 %
13.12.2018 12:00 3,5 C 9,1 C 1,7 C 82 % 1018,8 hPa 0,0 l/m 1,00 h 0,00 h 266 W/m 12,2 km/h (2 Bft) 97,37 %
13.12.2018 13:00 4,1 C 9,1 C 2,1 C 78 % 1018,3 hPa 0,0 l/m 1,00 h 0,00 h 242 W/m 12,4 km/h (3 Bft) 94,38 %
13.12.2018 14:00 3,5 C 5,5 C 1,3 C 78 % 1017,9 hPa 0,0 l/m 0,67 h 0,00 h 141 W/m 14,1 km/h (3 Bft) 93,80 %
13.12.2018 15:00 2,2 C 1,5 C 0,4 C 82 % 1017,8 hPa 0,0 l/m 0,00 h 0,00 h 28 W/m 10,6 km/h (2 Bft) 94,73 %
13.12.2018 16:00 1,4 C 0,6 C -0,4 C 84 % 1018,1 hPa 0,0 l/m 0,00 h 0,00 h 9 W/m 9,9 km/h (2 Bft) 95,23 %
13.12.2018 17:00 0,6 C -0,4 C -1,1 C 86 % 1018,3 hPa 0,0 l/m 0,00 h 0,00 h 0 W/m 6,6 km/h (2 Bft) 91,89 %
13.12.2018 18:00 0,2 C -0,7 C -1,6 C 88 % 1018,3 hPa 0,0 l/m 0,00 h 0,00 h 0 W/m 6,2 km/h (2 Bft) 83,80 %
13.12.2018 19:00 -0,2 C -0,8 C -1,6 C 89 % 1018,4 hPa 0,0 l/m 0,00 h 0,00 h 0 W/m 0,1 km/h (0 Bft) 92,67 %
13.12.2018 20:00 0,2 C 0,1 C -0,8 C 91 % 1018,6 hPa 0,0 l/m 0,00 h 0,00 h 0 W/m 0,9 km/h (0 Bft) 97,42 %
13.12.2018 21:00 0,7 C 0,6 C -0,4 C 91 % 1018,8 hPa 0,0 l/m 0,00 h 0,00 h 0 W/m 4,7 km/h (1 Bft) 96,51 %
13.12.2018 22:00 1,1 C 0,7 C 0,0 C 90 % 1019,1 hPa 0,0 l/m 0,00 h 0,00 h 0 W/m 6,4 km/h (2 Bft) 97,45 %
13.12.2018 23:00 1,1 C 0,6 C 0,0 C 90 % 1019,2 hPa 0,0 l/m 0,00 h 0,00 h 0 W/m 7,2 km/h (2 Bft) 97,01 %
14.12.2018 00:00 0,9 C 0,5 C -0,2 C 91 % 1019,1 hPa 0,0 l/m 0,00 h 0,00 h 0 W/m 6,2 km/h (2 Bft) 98,63 %
14.12.2018 01:00 0,7 C 0,1 C -0,4 C 92 % 1019,0 hPa 0,0 l/m 0,00 h 0,00 h 0 W/m 5,9 km/h (2 Bft) 96,44 %
14.12.2018 02:00 0,8 C 0,6 C 0,0 C 93 % 1019,1 hPa 0,0 l/m 0,00 h 0,00 h 0 W/m 5,9 km/h (2 Bft) 96,74 %
14.12.2018 03:00 0,8 C 0,3 C 0,0 C 93 % 1019,0 hPa 0,0 l/m 0,00 h 0,00 h 0 W/m 7,9 km/h (2 Bft) 99,16 %
14.12.2018 04:00 0,6 C 0,0 C -0,4 C 94 % 1018,8 hPa 0,0 l/m 0,00 h 0,00 h 0 W/m 7,5 km/h (2 Bft) 96,30 %
14.12.2018 05:00 0,5 C 0,0 C -0,6 C 94 % 1019,0 hPa 0,0 l/m 0,00 h 0,00 h 0 W/m 4,0 km/h (1 Bft) 96,58 %
14.12.2018 06:00 0,5 C 0,0 C -0,6 C 94 % 1019,2 hPa 0,0 l/m 0,00 h 0,00 h 0 W/m 4,0 km/h (1 Bft) 97,79 %
14.12.2018 07:00 0,5 C 0,0 C -0,6 C 94 % 1019,4 hPa 0,0 l/m 0,00 h 0,00 h 0 W/m 1,9 km/h (1 Bft) 96,29 %
14.12.2018 08:00 0,5 C 0,2 C -0,2 C 94 % 1020,1 hPa 0,0 l/m 0,00 h 0,00 h 4 W/m 4,9 km/h (1 Bft) 95,31 %
14.12.2018 09:00 0,7 C 0,6 C 0,0 C 93 % 1020,5 hPa 0,0 l/m 0,00 h 0,00 h 12 W/m 4,2 km/h (1 Bft) 95,52 %
14.12.2018 10:00 1,0 C 0,9 C 0,4 C 92 % 1021,0 hPa 0,0 l/m 0,00 h 0,00 h 26 W/m 4,7 km/h (1 Bft) 96,73 %
14.12.2018 11:00 1,3 C 1,4 C 0,9 C 92 % 1020,9 hPa 0,0 l/m 0,00 h 0,00 h 45 W/m 4,3 km/h (1 Bft) 97,65 %
14.12.2018 12:00 1,7 C 1,7 C 1,3 C 90 % 1020,7 hPa 0,0 l/m 0,00 h 0,00 h 60 W/m 6,4 km/h (2 Bft) 95,21 %
14.12.2018 13:00 1,9 C 1,7 C 1,3 C 88 % 1020,6 hPa 0,0 l/m 0,00 h 0,00 h 44 W/m 6,7 km/h (2 Bft) 96,37 %
14.12.2018 14:00 1,7 C 1,3 C 1,1 C 83 % 1020,8 hPa 0,0 l/m 0,00 h 0,00 h 16 W/m 4,6 km/h (1 Bft) 92,71 %
14.12.2018 15:00 1,7 C 1,3 C 0,9 C 81 % 1021,3 hPa 0,0 l/m 0,00 h 0,00 h 14 W/m 2,1 km/h (1 Bft) 94,20 %
14.12.2018 16:00 1,6 C 1,1 C 0,6 C 85 % 1021,6 hPa 0,0 l/m 0,00 h 0,00 h 4 W/m 5,9 km/h (2 Bft) 99,08 %
14.12.2018 17:00 1,3 C 0,7 C 0,4 C 86 % 1022,0 hPa 0,0 l/m 0,00 h 0,00 h 0 W/m 3,8 km/h (1 Bft) 97,79 %
14.12.2018 18:00 1,1 C 0,6 C 0,0 C 88 % 1022,5 hPa 0,0 l/m 0,00 h 0,00 h 0 W/m 1,1 km/h (1 Bft) 95,51 %
14.12.2018 19:00 1,1 C 0,6 C 0,0 C 88 % 1022,9 hPa 0,0 l/m 0,00 h 0,00 h 0 W/m 0,1 km/h (0 Bft) 99,43 %
14.12.2018 20:00 0,9 C 0,3 C 0,0 C 88 % 1023,3 hPa 0,0 l/m 0,00 h 0,00 h 0 W/m 0,1 km/h (0 Bft) 96,72 %
14.12.2018 21:00 0,7 C 0,2 C 0,0 C 89 % 1023,2 hPa 0,0 l/m 0,00 h 0,00 h 0 W/m 1,1 km/h (0 Bft) 97,58 %
14.12.2018 22:00 0,9 C 0,6 C 0,0 C 81 % 1023,1 hPa 0,0 l/m 0,00 h 0,00 h 0 W/m 5,9 km/h (2 Bft) 97,13 %
14.12.2018 23:00 0,9 C 0,6 C -0,3 C 76 % 1023,0 hPa 0,0 l/m 0,00 h 0,00 h 0 W/m 5,8 km/h (2 Bft) 97,05 %
15.12.2018 00:00 0,7 C 0,6 C -0,6 C 76 % 1023,3 hPa 0,0 l/m 0,00 h 0,00 h 0 W/m 4,3 km/h (1 Bft) 99,49 %
15.12.2018 01:00 0,7 C 0,3 C -0,6 C 76 % 1023,5 hPa 0,0 l/m 0,00 h 0,00 h 0 W/m 6,2 km/h (2 Bft) 95,10 %
15.12.2018 02:00 0,6 C 0,2 C -0,6 C 75 % 1024,1 hPa 0,0 l/m 0,00 h 0,00 h 0 W/m 6,1 km/h (2 Bft) 98,15 %
15.12.2018 03:00 0,6 C 0,0 C -0,6 C 75 % 1024,2 hPa 0,0 l/m 0,00 h 0,00 h 0 W/m 4,3 km/h (1 Bft) 98,50 %
15.12.2018 04:00 0,5 C 0,0 C -0,6 C 75 % 1023,8 hPa 0,0 l/m 0,00 h 0,00 h 0 W/m 10,0 km/h (2 Bft) 95,72 %
15.12.2018 05:00 0,5 C 0,0 C -0,6 C 73 % 1023,7 hPa 0,0 l/m 0,00 h 0,00 h 0 W/m 12,8 km/h (3 Bft) 97,42 %
15.12.2018 06:00 0,3 C -0,1 C -0,6 C 74 % 1023,7 hPa 0,0 l/m 0,00 h 0,00 h 0 W/m 9,4 km/h (2 Bft) 98,01 %
15.12.2018 07:00 0,2 C 0,0 C -0,6 C 73 % 1023,7 hPa 0,0 l/m 0,00 h 0,00 h 0 W/m 11,9 km/h (2 Bft) 97,23 %
15.12.2018 08:00 0,4 C 0,0 C -0,6 C 71 % 1023,5 hPa 0,0 l/m 0,00 h 0,00 h 5 W/m 19,0 km/h (3 Bft) 97,07 %
15.12.2018 09:00 0,5 C 0,0 C -0,6 C 72 % 1023,7 hPa 0,0 l/m 0,00 h 0,00 h 12 W/m 17,5 km/h (3 Bft) 96,21 %
15.12.2018 10:00 0,6 C 0,5 C -0,2 C 73 % 1023,9 hPa 0,0 l/m 0,00 h 0,00 h 27 W/m 18,3 km/h (3 Bft) 98,14 %
15.12.2018 11:00 0,8 C 0,6 C 0,0 C 74 % 1023,3 hPa 0,0 l/m 0,00 h 0,00 h 33 W/m 17,4 km/h (3 Bft) 98,12 %
15.12.2018 12:00 0,9 C 0,7 C 0,3 C 75 % 1022,4 hPa 0,0 l/m 0,00 h 0,00 h 53 W/m 22,1 km/h (4 Bft) 96,03 %
15.12.2018 13:00 1,1 C 0,9 C 0,5 C 74 % 1021,7 hPa 0,0 l/m 0,00 h 0,00 h 48 W/m 24,5 km/h (4 Bft) 98,08 %
15.12.2018 14:00 1,2 C 1,1 C 0,6 C 73 % 1021,2 hPa 0,0 l/m 0,00 h 0,00 h 54 W/m 24,6 km/h (4 Bft) 98,15 %
15.12.2018 15:00 1,2 C 0,9 C 0,4 C 73 % 1020,3 hPa 0,0 l/m 0,00 h 0,00 h 34 W/m 27,6 km/h (4 Bft) 97,08 %
15.12.2018 16:00 0,7 C 0,2 C -0,6 C 74 % 1019,3 hPa 0,0 l/m 0,00 h 0,00 h 8 W/m 27,1 km/h (4 Bft) 95,73 %
15.12.2018 17:00 0,2 C -0,4 C -1,1 C 76 % 1018,8 hPa 0,0 l/m 0,00 h 0,00 h 0 W/m 19,6 km/h (3 Bft) 98,79 %
15.12.2018 18:00 0,1 C -0,6 C -1,1 C 76 % 1017,7 hPa 0,0 l/m 0,00 h 0,00 h 0 W/m 32,0 km/h (5 Bft) 97,31 %
15.12.2018 19:00 -0,1 C -0,6 C -1,5 C 77 % 1016,5 hPa 0,0 l/m 0,00 h 0,00 h 0 W/m 30,0 km/h (5 Bft) 96,30 %
15.12.2018 20:00 -0,1 C -0,6 C -1,5 C 77 % 1015,7 hPa 0,0 l/m 0,00 h 0,00 h 0 W/m 35,8 km/h (5 Bft) 97,86 %
15.12.2018 21:00 -0,2 C -0,7 C -1,7 C 78 % 1014,8 hPa 0,0 l/m 0,00 h 0,00 h 0 W/m 31,0 km/h (5 Bft) 96,10 %
15.12.2018 22:00 -0,2 C -0,6 C -1,3 C 78 % 1013,5 hPa 0,0 l/m 0,00 h 0,00 h 0 W/m 34,2 km/h (5 Bft) 97,64 %
15.12.2018 23:00 -0,0 C -0,6 C -1,1 C 77 % 1012,2 hPa 0,2 l/m 0,00 h 0,00 h 0 W/m 37,4 km/h (5 Bft) 98,45 %
16.12.2018 00:00 0,1 C -0,5 C -1,1 C 76 % 1011,9 hPa 0,0 l/m 0,00 h 0,00 h 0 W/m 36,3 km/h (5 Bft) 93,87 %
16.12.2018 01:00 0,2 C 0,0 C -0,7 C 75 % 1011,5 hPa 0,0 l/m 0,00 h 0,00 h 0 W/m 35,8 km/h (5 Bft) 99,50 %
16.12.2018 02:00 0,2 C -0,3 C -0,8 C 78 % 1010,9 hPa 0,0 l/m 0,00 h 0,00 h 0 W/m 30,8 km/h (5 Bft) 98,51 %
16.12.2018 03:00 -0,4 C -1,3 C -1,6 C 86 % 1009,9 hPa 0,0 l/m 0,00 h 0,23 h 0 W/m 28,1 km/h (4 Bft) 96,01 %
16.12.2018 04:00 -0,9 C -1,7 C -2,1 C 91 % 1009,2 hPa 0,0 l/m 0,00 h 0,47 h 0 W/m 25,1 km/h (4 Bft) 98,29 %
16.12.2018 05:00 -1,3 C -1,7 C -2,2 C 93 % 1008,9 hPa 0,0 l/m 0,00 h 0,00 h 0 W/m 24,5 km/h (4 Bft) 97,43 %
16.12.2018 06:00 -1,4 C -1,7 C -2,2 C 94 % 1008,6 hPa 0,0 l/m 0,00 h 0,00 h 0 W/m 24,8 km/h (4 Bft) 97,94 %
16.12.2018 07:00 -1,2 C -1,6 C -2,0 C 94 % 1008,3 hPa 0,0 l/m 0,00 h 0,00 h 0 W/m 19,4 km/h (3 Bft) 97,37 %
16.12.2018 08:00 -1,0 C -1,4 C -1,7 C 94 % 1008,6 hPa 0,0 l/m 0,00 h 0,00 h 0 W/m 18,2 km/h (3 Bft) 95,94 %
16.12.2018 09:00 -0,8 C -1,1 C -1,7 C 93 % 1008,9 hPa 0,0 l/m 0,00 h 0,00 h 10 W/m 16,5 km/h (3 Bft) 97,59 %
16.12.2018 10:00 -0,4 C -0,6 C -1,1 C 93 % 1009,2 hPa 0,0 l/m 0,00 h 0,00 h 39 W/m 14,2 km/h (3 Bft) 97,44 %
16.12.2018 11:00 -0,2 C -0,2 C -0,8 C 92 % 1009,2 hPa 0,0 l/m 0,00 h 0,00 h 37 W/m 15,8 km/h (3 Bft) 97,01 %
16.12.2018 12:00 0,1 C 0,0 C -0,6 C 92 % 1008,9 hPa 0,0 l/m 0,00 h 0,00 h 46 W/m 16,2 km/h (3 Bft) 95,95 %
16.12.2018 13:00 0,3 C 0,2 C -0,4 C 93 % 1008,9 hPa 0,0 l/m 0,00 h 0,00 h 44 W/m 9,3 km/h (2 Bft) 98,15 %
16.12.2018 14:00 0,6 C 0,6 C 0,0 C 94 % 1009,1 hPa 0,0 l/m 0,00 h 0,00 h 41 W/m 11,2 km/h (2 Bft) 97,93 %
16.12.2018 15:00 0,9 C 0,8 C 0,1 C 93 % 1009,1 hPa 0,0 l/m 0,10 h 0,00 h 35 W/m 10,4 km/h (2 Bft) 95,38 %
16.12.2018 16:00 1,1 C 0,6 C 0,0 C 93 % 1009,6 hPa 0,0 l/m 0,00 h 0,00 h 8 W/m 5,9 km/h (2 Bft) 98,29 %
16.12.2018 17:00 1,2 C 0,9 C 0,1 C 93 % 1009,9 hPa 0,0 l/m 0,00 h 0,00 h 0 W/m 4,3 km/h (1 Bft) 96,80 %
16.12.2018 18:00 1,5 C 1,1 C 0,6 C 94 % 1010,1 hPa 0,0 l/m 0,00 h 0,00 h 0 W/m 3,7 km/h (1 Bft) 97,93 %
16.12.2018 19:00 1,6 C 1,1 C 0,6 C 94 % 1010,4 hPa 0,0 l/m 0,00 h 0,00 h 0 W/m 4,3 km/h (1 Bft) 96,90 %
16.12.2018 20:00 1,7 C 1,2 C 0,6 C 94 % 1010,7 hPa 0,2 l/m 0,00 h 0,00 h 0 W/m 1,1 km/h (0 Bft) 96,79 %
16.12.2018 21:00 1,7 C 1,1 C 0,6 C 94 % 1011,2 hPa 0,2 l/m 0,00 h 0,00 h 0 W/m 0,8 km/h (0 Bft) 99,15 %
16.12.2018 22:00 1,6 C 1,1 C 0,4 C 94 % 1011,4 hPa 0,2 l/m 0,00 h 0,00 h 0 W/m 2,0 km/h (1 Bft) 96,58 %
16.12.2018 23:00 1,3 C 0,9 C 0,1 C 95 % 1012,0 hPa 0,0 l/m 0,00 h 0,00 h 0 W/m 3,4 km/h (1 Bft) 96,44 %
Min-Datum _ 16.12.18 12.12.18 12.12.18 15.12.18 16.12.18 - - - - 11.12.18 13.12.18
_ Min-Zeit 05:56 02:26 21:26 07:56 07:58 - - - - 16:26 00:02
Minimum _ -1,4 C -1,7 C -2,2 C 71 % 1008,2 hPa - - - - 0,0 km/h (0 Bft) 10,53 %
Max-Datum _ 11.12.18 11.12.18 11.12.18 12.12.18 15.12.18 10.12.18 11.12.18 10.12.18 11.12.18 15.12.18 10.12.18
_ Max-Zeit 13:36 12:40 12:22 11:22 03:00 05:00 12:08 12:08 13:32 22:36 00:00
Maximum _ 7,7 C 15,0 C 8,3 C 98 % 1024,4 hPa 0,4 l/m 0,07 h 0,07 h 348 W/m 57,9 km/h
O-SO (7 Bft)
100,00 %
Durchschnitt _ 1,8 C 1,6 C 0,7 C 89 % 1019,1 hPa #2,6 l/m #9:30 h #7:14 h 61 W/m 9,9 km/h (2 Bft) 97,02 %
© 2018 W. Hausmann